sensor_id;sensor_type;location;lat;lon;timestamp;temperature;humidity
55016;DHT22;40919;43.236;21.590;2023-02-28T00:00:39;103.20;2227.20
55016;DHT22;40919;43.236;21.590;2023-02-28T00:03:05;103.20;2227.20
55016;DHT22;40919;43.236;21.590;2023-02-28T00:05:31;103.20;2227.20
55016;DHT22;40919;43.236;21.590;2023-02-28T00:07:57;103.20;2227.20
55016;DHT22;40919;43.236;21.590;2023-02-28T00:10:26;103.20;2227.20
55016;DHT22;40919;43.236;21.590;2023-02-28T00:12:54;103.20;2227.20
55016;DHT22;40919;43.236;21.590;2023-02-28T00:15:22;103.00;2227.20
55016;DHT22;40919;43.236;21.590;2023-02-28T00:17:49;103.00;2227.20
55016;DHT22;40919;43.236;21.590;2023-02-28T00:20:15;102.90;2227.20
55016;DHT22;40919;43.236;21.590;2023-02-28T00:22:44;102.90;2227.20
55016;DHT22;40919;43.236;21.590;2023-02-28T00:25:12;102.70;2227.20
55016;DHT22;40919;43.236;21.590;2023-02-28T00:27:38;102.70;2227.20
55016;DHT22;40919;43.236;21.590;2023-02-28T00:30:05;102.70;2227.20
55016;DHT22;40919;43.236;21.590;2023-02-28T00:32:32;102.80;2227.20
55016;DHT22;40919;43.236;21.590;2023-02-28T00:34:58;102.90;2227.20
55016;DHT22;40919;43.236;21.590;2023-02-28T00:37:23;103.00;2227.20
55016;DHT22;40919;43.236;21.590;2023-02-28T00:39:49;103.10;2227.20
55016;DHT22;40919;43.236;21.590;2023-02-28T00:42:15;103.10;2227.20
55016;DHT22;40919;43.236;21.590;2023-02-28T00:44:41;103.10;2227.20
55016;DHT22;40919;43.236;21.590;2023-02-28T00:47:06;103.10;2227.20
55016;DHT22;40919;43.236;21.590;2023-02-28T00:49:32;103.20;2227.20
55016;DHT22;40919;43.236;21.590;2023-02-28T00:51:58;103.20;2227.20
55016;DHT22;40919;43.236;21.590;2023-02-28T00:54:24;103.20;2227.20
55016;DHT22;40919;43.236;21.590;2023-02-28T00:56:50;103.30;2227.20
55016;DHT22;40919;43.236;21.590;2023-02-28T00:59:17;103.10;2227.20
55016;DHT22;40919;43.236;21.590;2023-02-28T01:01:44;102.90;2227.20
55016;DHT22;40919;43.236;21.590;2023-02-28T01:04:11;102.90;2227.20
55016;DHT22;40919;43.236;21.590;2023-02-28T01:06:37;103.00;2227.20
55016;DHT22;40919;43.236;21.590;2023-02-28T01:09:04;103.00;2227.20
55016;DHT22;40919;43.236;21.590;2023-02-28T01:11:31;103.00;2227.20
55016;DHT22;40919;43.236;21.590;2023-02-28T01:13:57;103.00;2227.20
55016;DHT22;40919;43.236;21.590;2023-02-28T01:16:23;103.10;2227.20
55016;DHT22;40919;43.236;21.590;2023-02-28T01:18:49;103.00;2227.20
55016;DHT22;40919;43.236;21.590;2023-02-28T01:21:17;102.90;2227.20
55016;DHT22;40919;43.236;21.590;2023-02-28T01:23:43;102.90;2227.20
55016;DHT22;40919;43.236;21.590;2023-02-28T01:26:15;103.00;2227.20
55016;DHT22;40919;43.236;21.590;2023-02-28T01:28:42;103.10;2227.20
55016;DHT22;40919;43.236;21.590;2023-02-28T01:31:09;103.00;2227.20
55016;DHT22;40919;43.236;21.590;2023-02-28T01:33:35;102.90;2227.20
55016;DHT22;40919;43.236;21.590;2023-02-28T01:36:13;102.90;2227.20
55016;DHT22;40919;43.236;21.590;2023-02-28T01:38:39;102.90;2227.20
55016;DHT22;40919;43.236;21.590;2023-02-28T01:41:06;102.90;2227.20
55016;DHT22;40919;43.236;21.590;2023-02-28T01:43:56;103.00;2227.20
55016;DHT22;40919;43.236;21.590;2023-02-28T01:46:22;103.00;2227.20
55016;DHT22;40919;43.236;21.590;2023-02-28T01:49:01;103.10;2227.20
55016;DHT22;40919;43.236;21.590;2023-02-28T01:54:16;103.20;2227.20
55016;DHT22;40919;43.236;21.590;2023-02-28T01:56:49;103.20;2227.20
55016;DHT22;40919;43.236;21.590;2023-02-28T01:59:22;103.20;2227.20
55016;DHT22;40919;43.236;21.590;2023-02-28T02:01:50;103.20;2227.20
55016;DHT22;40919;43.236;21.590;2023-02-28T02:04:16;103.20;2227.20
55016;DHT22;40919;43.236;21.590;2023-02-28T02:06:46;103.20;2227.20
55016;DHT22;40919;43.236;21.590;2023-02-28T02:09:13;103.30;2227.20
55016;DHT22;40919;43.236;21.590;2023-02-28T02:11:41;103.30;2227.20
55016;DHT22;40919;43.236;21.590;2023-02-28T02:17:05;128.10;2252.80
55016;DHT22;40919;43.236;21.590;2023-02-28T02:20:00;128.00;2252.80
55016;DHT22;40919;43.236;21.590;2023-02-28T02:22:49;128.10;2252.80
55016;DHT22;40919;43.236;21.590;2023-02-28T02:28:04;103.20;2227.20
55016;DHT22;40919;43.236;21.590;2023-02-28T02:39:40;103.30;2227.20
55016;DHT22;40919;43.236;21.590;2023-02-28T02:42:20;103.30;2227.20
55016;DHT22;40919;43.236;21.590;2023-02-28T02:44:58;103.30;2227.20
55016;DHT22;40919;43.236;21.590;2023-02-28T02:47:27;103.30;2227.20
55016;DHT22;40919;43.236;21.590;2023-02-28T02:49:57;128.00;2252.80
55016;DHT22;40919;43.236;21.590;2023-02-28T02:52:34;103.30;2227.20
55016;DHT22;40919;43.236;21.590;2023-02-28T02:55:02;103.20;2227.20
55016;DHT22;40919;43.236;21.590;2023-02-28T02:57:58;103.20;2227.20
55016;DHT22;40919;43.236;21.590;2023-02-28T03:00:31;103.20;2227.20
55016;DHT22;40919;43.236;21.590;2023-02-28T03:02:59;103.10;2227.20
55016;DHT22;40919;43.236;21.590;2023-02-28T03:05:33;103.10;2227.20
55016;DHT22;40919;43.236;21.590;2023-02-28T03:08:03;103.10;2227.20
55016;DHT22;40919;43.236;21.590;2023-02-28T03:10:36;103.20;2227.20
55016;DHT22;40919;43.236;21.590;2023-02-28T03:13:21;103.10;2227.20
55016;DHT22;40919;43.236;21.590;2023-02-28T03:24:11;128.20;2252.80
55016;DHT22;40919;43.236;21.590;2023-02-28T03:26:45;128.00;2252.80
55016;DHT22;40919;43.236;21.590;2023-02-28T03:29:23;103.30;2227.20
55016;DHT22;40919;43.236;21.590;2023-02-28T03:31:59;103.10;2227.20
55016;DHT22;40919;43.236;21.590;2023-02-28T03:34:33;103.00;2227.20
55016;DHT22;40919;43.236;21.590;2023-02-28T03:37:09;103.00;2227.20
55016;DHT22;40919;43.236;21.590;2023-02-28T03:39:49;103.00;2227.20
55016;DHT22;40919;43.236;21.590;2023-02-28T03:42:22;103.00;2227.20
55016;DHT22;40919;43.236;21.590;2023-02-28T03:44:58;102.90;2227.20
55016;DHT22;40919;43.236;21.590;2023-02-28T03:50:33;103.00;2227.20
55016;DHT22;40919;43.236;21.590;2023-02-28T03:53:08;103.10;2227.20
55016;DHT22;40919;43.236;21.590;2023-02-28T03:55:40;103.20;2227.20
55016;DHT22;40919;43.236;21.590;2023-02-28T04:00:50;103.20;2227.20
55016;DHT22;40919;43.236;21.590;2023-02-28T04:03:19;103.20;2227.20
55016;DHT22;40919;43.236;21.590;2023-02-28T04:05:53;103.20;2227.20
55016;DHT22;40919;43.236;21.590;2023-02-28T04:08:19;103.20;2227.20
55016;DHT22;40919;43.236;21.590;2023-02-28T04:10:55;103.20;2227.20
55016;DHT22;40919;43.236;21.590;2023-02-28T04:13:23;103.10;2227.20
55016;DHT22;40919;43.236;21.590;2023-02-28T04:15:49;103.10;2227.20
55016;DHT22;40919;43.236;21.590;2023-02-28T04:18:14;103.10;2227.20
55016;DHT22;40919;43.236;21.590;2023-02-28T04:20:40;103.10;2227.20
55016;DHT22;40919;43.236;21.590;2023-02-28T04:23:06;103.10;2227.20
55016;DHT22;40919;43.236;21.590;2023-02-28T04:25:31;103.20;2227.20
55016;DHT22;40919;43.236;21.590;2023-02-28T04:27:57;103.30;2227.20
55016;DHT22;40919;43.236;21.590;2023-02-28T04:30:23;128.00;2252.80
55016;DHT22;40919;43.236;21.590;2023-02-28T04:32:49;128.10;2252.80
55016;DHT22;40919;43.236;21.590;2023-02-28T04:35:14;128.00;2252.80
55016;DHT22;40919;43.236;21.590;2023-02-28T04:37:41;103.10;2227.20
55016;DHT22;40919;43.236;21.590;2023-02-28T04:40:07;103.10;2227.20
55016;DHT22;40919;43.236;21.590;2023-02-28T04:42:33;103.10;2227.20
55016;DHT22;40919;43.236;21.590;2023-02-28T04:45:04;103.10;2227.20
55016;DHT22;40919;43.236;21.590;2023-02-28T04:47:30;103.10;2227.20
55016;DHT22;40919;43.236;21.590;2023-02-28T04:49:56;103.00;2227.20
55016;DHT22;40919;43.236;21.590;2023-02-28T04:52:22;103.00;2227.20
55016;DHT22;40919;43.236;21.590;2023-02-28T04:54:48;103.00;2227.20
55016;DHT22;40919;43.236;21.590;2023-02-28T04:57:13;103.10;2227.20
55016;DHT22;40919;43.236;21.590;2023-02-28T04:59:39;103.00;2227.20
55016;DHT22;40919;43.236;21.590;2023-02-28T05:02:05;103.10;2227.20
55016;DHT22;40919;43.236;21.590;2023-02-28T05:04:33;103.20;2227.20
55016;DHT22;40919;43.236;21.590;2023-02-28T05:07:00;103.20;2227.20
55016;DHT22;40919;43.236;21.590;2023-02-28T05:09:26;103.20;2227.20
55016;DHT22;40919;43.236;21.590;2023-02-28T05:11:52;103.20;2227.20
55016;DHT22;40919;43.236;21.590;2023-02-28T05:14:18;103.10;2227.20
55016;DHT22;40919;43.236;21.590;2023-02-28T05:16:44;102.90;2227.20
55016;DHT22;40919;43.236;21.590;2023-02-28T05:19:10;102.80;2227.20
55016;DHT22;40919;43.236;21.590;2023-02-28T05:21:41;102.90;2227.20
55016;DHT22;40919;43.236;21.590;2023-02-28T05:24:10;103.00;2227.20
55016;DHT22;40919;43.236;21.590;2023-02-28T05:26:38;102.90;2227.20
55016;DHT22;40919;43.236;21.590;2023-02-28T05:29:04;102.90;2227.20
55016;DHT22;40919;43.236;21.590;2023-02-28T05:31:30;103.00;2227.20
55016;DHT22;40919;43.236;21.590;2023-02-28T05:33:56;103.10;2227.20
55016;DHT22;40919;43.236;21.590;2023-02-28T05:36:23;103.00;2227.20
55016;DHT22;40919;43.236;21.590;2023-02-28T05:38:49;103.00;2227.20
55016;DHT22;40919;43.236;21.590;2023-02-28T05:41:15;103.10;2227.20
55016;DHT22;40919;43.236;21.590;2023-02-28T05:43:41;103.00;2227.20
55016;DHT22;40919;43.236;21.590;2023-02-28T05:46:09;103.10;2227.20
55016;DHT22;40919;43.236;21.590;2023-02-28T05:48:36;103.20;2227.20
55016;DHT22;40919;43.236;21.590;2023-02-28T05:51:03;103.20;2227.20
55016;DHT22;40919;43.236;21.590;2023-02-28T05:53:29;103.30;2227.20
55016;DHT22;40919;43.236;21.590;2023-02-28T05:55:55;103.20;2227.20
55016;DHT22;40919;43.236;21.590;2023-02-28T05:58:21;103.20;2227.20
55016;DHT22;40919;43.236;21.590;2023-02-28T06:00:47;103.20;2227.20
55016;DHT22;40919;43.236;21.590;2023-02-28T06:03:13;103.20;2227.20
55016;DHT22;40919;43.236;21.590;2023-02-28T06:05:39;103.30;2227.20
55016;DHT22;40919;43.236;21.590;2023-02-28T06:08:05;103.30;2227.20
55016;DHT22;40919;43.236;21.590;2023-02-28T06:10:34;103.30;2227.20
55016;DHT22;40919;43.236;21.590;2023-02-28T06:13:01;128.00;2252.80
55016;DHT22;40919;43.236;21.590;2023-02-28T06:15:28;128.10;2252.80
55016;DHT22;40919;43.236;21.590;2023-02-28T06:17:54;128.40;2252.80
55016;DHT22;40919;43.236;21.590;2023-02-28T06:20:22;128.10;2252.80
55016;DHT22;40919;43.236;21.590;2023-02-28T06:22:48;128.10;2252.80
55016;DHT22;40919;43.236;21.590;2023-02-28T06:25:15;128.20;2252.80
55016;DHT22;40919;43.236;21.590;2023-02-28T06:27:41;128.20;2252.80
55016;DHT22;40919;43.236;21.590;2023-02-28T06:30:07;128.30;2252.80
55016;DHT22;40919;43.236;21.590;2023-02-28T06:32:33;128.30;2252.80
55016;DHT22;40919;43.236;21.590;2023-02-28T06:34:59;128.30;2252.80
55016;DHT22;40919;43.236;21.590;2023-02-28T06:37:25;128.40;2252.80
55016;DHT22;40919;43.236;21.590;2023-02-28T06:39:56;128.20;2252.80
55016;DHT22;40919;43.236;21.590;2023-02-28T06:42:24;128.20;2252.80
55016;DHT22;40919;43.236;21.590;2023-02-28T06:44:57;128.30;2252.80
55016;DHT22;40919;43.236;21.590;2023-02-28T06:47:23;128.30;2252.80
55016;DHT22;40919;43.236;21.590;2023-02-28T06:49:49;128.40;2252.80
55016;DHT22;40919;43.236;21.590;2023-02-28T06:52:15;128.40;2252.80
55016;DHT22;40919;43.236;21.590;2023-02-28T06:54:41;128.40;2252.80
55016;DHT22;40919;43.236;21.590;2023-02-28T06:57:07;128.30;2252.80
55016;DHT22;40919;43.236;21.590;2023-02-28T06:59:32;128.10;2252.80
55016;DHT22;40919;43.236;21.590;2023-02-28T07:01:58;128.20;2252.80
55016;DHT22;40919;43.236;21.590;2023-02-28T07:04:24;128.10;2252.80
55016;DHT22;40919;43.236;21.590;2023-02-28T07:06:50;128.10;2252.80
55016;DHT22;40919;43.236;21.590;2023-02-28T07:09:15;128.10;2252.80
55016;DHT22;40919;43.236;21.590;2023-02-28T07:11:41;128.00;2252.80
55016;DHT22;40919;43.236;21.590;2023-02-28T07:14:08;103.30;2227.20
55016;DHT22;40919;43.236;21.590;2023-02-28T07:16:34;103.30;2227.20
55016;DHT22;40919;43.236;21.590;2023-02-28T07:19:00;128.00;2252.80
55016;DHT22;40919;43.236;21.590;2023-02-28T07:21:26;128.20;2252.80
55016;DHT22;40919;43.236;21.590;2023-02-28T07:23:52;128.30;2252.80
55016;DHT22;40919;43.236;21.590;2023-02-28T07:26:19;128.40;2252.80
55016;DHT22;40919;43.236;21.590;2023-02-28T07:28:46;128.40;2252.80
55016;DHT22;40919;43.236;21.590;2023-02-28T07:31:12;128.40;2252.80
55016;DHT22;40919;43.236;21.590;2023-02-28T07:33:39;128.40;2252.80
55016;DHT22;40919;43.236;21.590;2023-02-28T07:36:07;128.20;2252.80
55016;DHT22;40919;43.236;21.590;2023-02-28T07:38:36;128.30;2252.80
55016;DHT22;40919;43.236;21.590;2023-02-28T07:41:02;128.30;2252.80
55016;DHT22;40919;43.236;21.590;2023-02-28T07:43:31;128.30;2252.80
55016;DHT22;40919;43.236;21.590;2023-02-28T07:46:03;128.20;2252.80
55016;DHT22;40919;43.236;21.590;2023-02-28T07:48:28;128.20;2252.80
55016;DHT22;40919;43.236;21.590;2023-02-28T07:50:58;128.30;2252.80
55016;DHT22;40919;43.236;21.590;2023-02-28T07:53:24;128.40;2252.80
55016;DHT22;40919;43.236;21.590;2023-02-28T07:55:50;128.30;2252.80
55016;DHT22;40919;43.236;21.590;2023-02-28T07:58:16;128.30;2252.80
55016;DHT22;40919;43.236;21.590;2023-02-28T08:00:42;128.40;2252.80
55016;DHT22;40919;43.236;21.590;2023-02-28T08:03:11;128.50;2252.80
55016;DHT22;40919;43.236;21.590;2023-02-28T08:05:41;128.50;2252.80
55016;DHT22;40919;43.236;21.590;2023-02-28T08:08:07;128.50;2252.80
55016;DHT22;40919;43.236;21.590;2023-02-28T08:10:33;128.60;2252.80
55016;DHT22;40919;43.236;21.590;2023-02-28T08:30:03;128.70;2252.80
55016;DHT22;40919;43.236;21.590;2023-02-28T08:32:29;128.50;2252.80
55016;DHT22;40919;43.236;21.590;2023-02-28T08:34:55;128.50;2252.80
55016;DHT22;40919;43.236;21.590;2023-02-28T08:37:20;128.40;2252.80
55016;DHT22;40919;43.236;21.590;2023-02-28T08:39:46;128.40;2252.80
55016;DHT22;40919;43.236;21.590;2023-02-28T08:42:12;128.50;2252.80
55016;DHT22;40919;43.236;21.590;2023-02-28T08:44:38;128.60;2252.80
55016;DHT22;40919;43.236;21.590;2023-02-28T08:47:03;128.50;2252.80
55016;DHT22;40919;43.236;21.590;2023-02-28T08:49:29;128.40;2252.80
55016;DHT22;40919;43.236;21.590;2023-02-28T08:51:55;128.40;2252.80
55016;DHT22;40919;43.236;21.590;2023-02-28T08:54:23;128.40;2252.80
55016;DHT22;40919;43.236;21.590;2023-02-28T08:56:48;128.10;2252.80
55016;DHT22;40919;43.236;21.590;2023-02-28T08:59:14;128.20;2252.80
55016;DHT22;40919;43.236;21.590;2023-02-28T09:01:41;128.40;2252.80
55016;DHT22;40919;43.236;21.590;2023-02-28T09:04:07;128.40;2252.80
55016;DHT22;40919;43.236;21.590;2023-02-28T09:06:35;128.50;2252.80
55016;DHT22;40919;43.236;21.590;2023-02-28T09:09:01;128.60;2252.80
55016;DHT22;40919;43.236;21.590;2023-02-28T09:11:27;128.70;2252.80
55016;DHT22;40919;43.236;21.590;2023-02-28T09:13:53;128.80;2252.80
55016;DHT22;40919;43.236;21.590;2023-02-28T09:16:21;128.80;2252.80
55016;DHT22;40919;43.236;21.590;2023-02-28T09:18:47;128.70;2252.80
55016;DHT22;40919;43.236;21.590;2023-02-28T09:21:15;128.80;2252.80
55016;DHT22;40919;43.236;21.590;2023-02-28T09:23:42;153.90;2252.80
55016;DHT22;40919;43.236;21.590;2023-02-28T09:26:17;153.80;2252.80
55016;DHT22;40919;43.236;21.590;2023-02-28T09:28:43;153.80;2252.80
55016;DHT22;40919;43.236;21.590;2023-02-28T09:31:15;153.70;2252.80
55016;DHT22;40919;43.236;21.590;2023-02-28T09:33:41;153.70;2252.80
55016;DHT22;40919;43.236;21.590;2023-02-28T09:36:07;153.60;2252.80
55016;DHT22;40919;43.236;21.590;2023-02-28T09:38:33;153.60;2252.80
55016;DHT22;40919;43.236;21.590;2023-02-28T09:41:10;153.60;2252.80
55016;DHT22;40919;43.236;21.590;2023-02-28T09:43:40;153.70;2252.80
55016;DHT22;40919;43.236;21.590;2023-02-28T09:46:38;153.70;2252.80
55016;DHT22;40919;43.236;21.590;2023-02-28T09:49:07;153.80;2252.80
55016;DHT22;40919;43.236;21.590;2023-02-28T09:54:20;153.90;2252.80
55016;DHT22;40919;43.236;21.590;2023-02-28T09:57:23;154.00;2252.80
55016;DHT22;40919;43.236;21.590;2023-02-28T10:00:02;153.90;2252.80
55016;DHT22;40919;43.236;21.590;2023-02-28T10:05:16;153.90;2252.80
55016;DHT22;40919;43.236;21.590;2023-02-28T10:10:42;153.90;2252.80
55016;DHT22;40919;43.236;21.590;2023-02-28T10:13:26;153.80;2252.80
55016;DHT22;40919;43.236;21.590;2023-02-28T10:15:54;153.90;2252.80
55016;DHT22;40919;43.236;21.590;2023-02-28T10:18:52;153.90;2252.80
55016;DHT22;40919;43.236;21.590;2023-02-28T10:21:26;154.10;2252.80
55016;DHT22;40919;43.236;21.590;2023-02-28T10:24:02;154.30;2252.80
55016;DHT22;40919;43.236;21.590;2023-02-28T10:26:31;154.00;2252.80
55016;DHT22;40919;43.236;21.590;2023-02-28T10:28:56;153.90;2252.80
55016;DHT22;40919;43.236;21.590;2023-02-28T10:31:22;154.00;2252.80
55016;DHT22;40919;43.236;21.590;2023-02-28T10:33:48;154.10;2252.80
55016;DHT22;40919;43.236;21.590;2023-02-28T10:36:17;154.10;2252.80
55016;DHT22;40919;43.236;21.590;2023-02-28T10:38:45;154.10;2252.80
55016;DHT22;40919;43.236;21.590;2023-02-28T10:41:14;154.20;2252.80
55016;DHT22;40919;43.236;21.590;2023-02-28T10:43:42;154.20;2252.80
55016;DHT22;40919;43.236;21.590;2023-02-28T10:48:50;154.30;2252.80
55016;DHT22;40919;43.236;21.590;2023-02-28T10:51:23;154.40;2252.80
55016;DHT22;40919;43.236;21.590;2023-02-28T10:53:49;179.20;2252.80
55016;DHT22;40919;43.236;21.590;2023-02-28T10:56:18;179.30;2252.80
55016;DHT22;40919;43.236;21.590;2023-02-28T11:01:24;179.30;2252.80
55016;DHT22;40919;43.236;21.590;2023-02-28T11:03:51;179.20;2252.80
55016;DHT22;40919;43.236;21.590;2023-02-28T11:06:23;179.20;2252.80
55016;DHT22;40919;43.236;21.590;2023-02-28T11:08:53;179.30;2252.80
55016;DHT22;40919;43.236;21.590;2023-02-28T11:11:20;179.30;2252.80
55016;DHT22;40919;43.236;21.590;2023-02-28T11:13:50;179.20;2252.80
55016;DHT22;40919;43.236;21.590;2023-02-28T11:16:16;179.20;2252.80
55016;DHT22;40919;43.236;21.590;2023-02-28T11:18:55;179.20;2252.80
55016;DHT22;40919;43.236;21.590;2023-02-28T11:21:35;179.40;2252.80
55016;DHT22;40919;43.236;21.590;2023-02-28T11:24:28;179.20;2252.80
55016;DHT22;40919;43.236;21.590;2023-02-28T11:26:54;179.30;2252.80
55016;DHT22;40919;43.236;21.590;2023-02-28T11:29:31;179.40;2252.80
55016;DHT22;40919;43.236;21.590;2023-02-28T11:32:11;179.40;2252.80
55016;DHT22;40919;43.236;21.590;2023-02-28T11:34:38;179.40;2252.80
55016;DHT22;40919;43.236;21.590;2023-02-28T11:37:09;179.40;2252.80
55016;DHT22;40919;43.236;21.590;2023-02-28T11:39:36;179.20;2252.80
55016;DHT22;40919;43.236;21.590;2023-02-28T11:57:44;179.50;2252.80
55016;DHT22;40919;43.236;21.590;2023-02-28T11:59:57;179.30;2252.80
55016;DHT22;40919;43.236;21.590;2023-02-28T12:02:31;179.40;2252.80
55016;DHT22;40919;43.236;21.590;2023-02-28T12:11:00;179.40;2252.80
55016;DHT22;40919;43.236;21.590;2023-02-28T12:16:17;179.50;2252.80
55016;DHT22;40919;43.236;21.590;2023-02-28T12:26:49;179.40;2252.80
55016;DHT22;40919;43.236;21.590;2023-02-28T12:29:29;179.40;2252.80
55016;DHT22;40919;43.236;21.590;2023-02-28T12:34:32;179.60;2252.80
55016;DHT22;40919;43.236;21.590;2023-02-28T12:37:04;179.70;2252.80
55016;DHT22;40919;43.236;21.590;2023-02-28T12:39:45;179.70;2252.80
55016;DHT22;40919;43.236;21.590;2023-02-28T12:42:24;179.70;2252.80
55016;DHT22;40919;43.236;21.590;2023-02-28T12:44:56;179.80;2252.80
55016;DHT22;40919;43.236;21.590;2023-02-28T12:47:23;179.90;2252.80
55016;DHT22;40919;43.236;21.590;2023-02-28T12:49:53;179.90;2252.80
55016;DHT22;40919;43.236;21.590;2023-02-28T12:52:39;179.90;2252.80
55016;DHT22;40919;43.236;21.590;2023-02-28T12:55:15;179.90;2252.80
55016;DHT22;40919;43.236;21.590;2023-02-28T12:57:50;180.00;2252.80
55016;DHT22;40919;43.236;21.590;2023-02-28T13:00:24;180.10;2252.80
55016;DHT22;40919;43.236;21.590;2023-02-28T13:18:37;204.80;2252.80
55016;DHT22;40919;43.236;21.590;2023-02-28T13:21:07;180.10;2252.80
55016;DHT22;40919;43.236;21.590;2023-02-28T13:23:55;180.00;2252.80
55016;DHT22;40919;43.236;21.590;2023-02-28T13:39:58;204.90;2252.80
55016;DHT22;40919;43.236;21.590;2023-02-28T13:42:50;204.90;2252.80
55016;DHT22;40919;43.236;21.590;2023-02-28T13:45:29;205.00;2252.80
55016;DHT22;40919;43.236;21.590;2023-02-28T13:48:15;204.90;2252.80
55016;DHT22;40919;43.236;21.590;2023-02-28T13:50:42;204.90;2252.80
55016;DHT22;40919;43.236;21.590;2023-02-28T13:53:22;205.00;2252.80
55016;DHT22;40919;43.236;21.590;2023-02-28T13:56:00;205.10;2252.80
55016;DHT22;40919;43.236;21.590;2023-02-28T14:04:14;205.00;2252.80
55016;DHT22;40919;43.236;21.590;2023-02-28T14:06:32;205.10;2252.80
55016;DHT22;40919;43.236;21.590;2023-02-28T14:11:45;205.10;2252.80
55016;DHT22;40919;43.236;21.590;2023-02-28T14:37:51;204.90;2252.80
55016;DHT22;40919;43.236;21.590;2023-02-28T14:40:33;205.00;2252.80
55016;DHT22;40919;43.236;21.590;2023-02-28T14:43:02;180.10;2252.80
55016;DHT22;40919;43.236;21.590;2023-02-28T14:45:33;180.10;2252.80
55016;DHT22;40919;43.236;21.590;2023-02-28T14:48:02;180.10;2252.80
55016;DHT22;40919;43.236;21.590;2023-02-28T14:50:35;180.00;2252.80
55016;DHT22;40919;43.236;21.590;2023-02-28T14:53:02;180.00;2252.80
55016;DHT22;40919;43.236;21.590;2023-02-28T14:55:31;180.10;2252.80
55016;DHT22;40919;43.236;21.590;2023-02-28T14:58:02;179.90;2252.80
55016;DHT22;40919;43.236;21.590;2023-02-28T15:00:35;179.90;2252.80
55016;DHT22;40919;43.236;21.590;2023-02-28T15:03:22;179.90;2252.80
55016;DHT22;40919;43.236;21.590;2023-02-28T15:05:55;179.80;2252.80
55016;DHT22;40919;43.236;21.590;2023-02-28T15:08:21;179.80;2252.80
55016;DHT22;40919;43.236;21.590;2023-02-28T15:11:00;179.90;2252.80
55016;DHT22;40919;43.236;21.590;2023-02-28T15:13:47;179.90;2252.80
55016;DHT22;40919;43.236;21.590;2023-02-28T15:16:15;179.90;2252.80
55016;DHT22;40919;43.236;21.590;2023-02-28T15:21:18;179.80;2252.80
55016;DHT22;40919;43.236;21.590;2023-02-28T15:23:53;179.90;2252.80
55016;DHT22;40919;43.236;21.590;2023-02-28T15:26:23;179.90;2252.80
55016;DHT22;40919;43.236;21.590;2023-02-28T15:28:55;179.80;2252.80
55016;DHT22;40919;43.236;21.590;2023-02-28T15:31:29;179.90;2252.80
55016;DHT22;40919;43.236;21.590;2023-02-28T15:34:03;179.80;2252.80
55016;DHT22;40919;43.236;21.590;2023-02-28T17:26:18;154.10;2252.80
55016;DHT22;40919;43.236;21.590;2023-02-28T17:28:48;153.90;2252.80
55016;DHT22;40919;43.236;21.590;2023-02-28T17:31:14;153.80;2252.80
55016;DHT22;40919;43.236;21.590;2023-02-28T17:33:40;153.80;2252.80
55016;DHT22;40919;43.236;21.590;2023-02-28T17:36:16;153.80;2252.80
55016;DHT22;40919;43.236;21.590;2023-02-28T17:38:43;153.80;2252.80
55016;DHT22;40919;43.236;21.590;2023-02-28T17:41:12;153.90;2252.80
55016;DHT22;40919;43.236;21.590;2023-02-28T17:43:38;153.90;2252.80
55016;DHT22;40919;43.236;21.590;2023-02-28T17:46:03;153.90;2252.80
55016;DHT22;40919;43.236;21.590;2023-02-28T17:48:33;153.80;2252.80
55016;DHT22;40919;43.236;21.590;2023-02-28T17:51:01;153.90;2252.80
55016;DHT22;40919;43.236;21.590;2023-02-28T17:53:26;153.80;2252.80
55016;DHT22;40919;43.236;21.590;2023-02-28T17:55:52;153.80;2252.80
55016;DHT22;40919;43.236;21.590;2023-02-28T17:58:18;153.80;2252.80
55016;DHT22;40919;43.236;21.590;2023-02-28T18:00:44;153.80;2252.80
55016;DHT22;40919;43.236;21.590;2023-02-28T18:03:11;153.80;2252.80
55016;DHT22;40919;43.236;21.590;2023-02-28T18:05:38;153.80;2252.80
55016;DHT22;40919;43.236;21.590;2023-02-28T18:08:04;153.80;2252.80
55016;DHT22;40919;43.236;21.590;2023-02-28T18:10:30;153.80;2252.80
55016;DHT22;40919;43.236;21.590;2023-02-28T18:12:58;153.80;2252.80
55016;DHT22;40919;43.236;21.590;2023-02-28T18:15:24;153.90;2252.80
55016;DHT22;40919;43.236;21.590;2023-02-28T18:17:50;154.00;2252.80
55016;DHT22;40919;43.236;21.590;2023-02-28T18:20:17;154.00;2252.80
55016;DHT22;40919;43.236;21.590;2023-02-28T18:22:42;154.00;2252.80
55016;DHT22;40919;43.236;21.590;2023-02-28T18:25:10;154.00;2252.80
55016;DHT22;40919;43.236;21.590;2023-02-28T18:27:42;154.00;2252.80
55016;DHT22;40919;43.236;21.590;2023-02-28T18:30:31;153.90;2252.80
55016;DHT22;40919;43.236;21.590;2023-02-28T18:32:59;153.80;2252.80
55016;DHT22;40919;43.236;21.590;2023-02-28T18:35:26;153.70;2252.80
55016;DHT22;40919;43.236;21.590;2023-02-28T18:38:20;153.70;2252.80
55016;DHT22;40919;43.236;21.590;2023-02-28T18:40:55;153.70;2252.80
55016;DHT22;40919;43.236;21.590;2023-02-28T18:43:21;153.80;2252.80
55016;DHT22;40919;43.236;21.590;2023-02-28T18:45:47;153.90;2252.80
55016;DHT22;40919;43.236;21.590;2023-02-28T18:48:13;153.90;2252.80
55016;DHT22;40919;43.236;21.590;2023-02-28T18:50:39;153.80;2252.80
55016;DHT22;40919;43.236;21.590;2023-02-28T18:53:06;153.80;2252.80
55016;DHT22;40919;43.236;21.590;2023-02-28T18:55:32;154.20;2252.80
55016;DHT22;40919;43.236;21.590;2023-02-28T18:57:59;153.80;2252.80
55016;DHT22;40919;43.236;21.590;2023-02-28T19:00:24;153.90;2252.80
55016;DHT22;40919;43.236;21.590;2023-02-28T19:02:51;153.90;2252.80
55016;DHT22;40919;43.236;21.590;2023-02-28T19:05:17;153.90;2252.80
55016;DHT22;40919;43.236;21.590;2023-02-28T19:07:45;154.00;2252.80
55016;DHT22;40919;43.236;21.590;2023-02-28T19:10:11;153.80;2252.80
55016;DHT22;40919;43.236;21.590;2023-02-28T19:12:38;153.90;2252.80
55016;DHT22;40919;43.236;21.590;2023-02-28T19:15:05;153.90;2252.80
55016;DHT22;40919;43.236;21.590;2023-02-28T19:17:31;153.90;2252.80
55016;DHT22;40919;43.236;21.590;2023-02-28T19:19:57;153.90;2252.80